createdAt,value
2022-11-05T13:06:41.786Z,1.60
2022-11-05T13:09:17.614Z,1.70
2022-11-05T13:11:57.307Z,2.03
2022-11-05T13:14:42.257Z,1.67
2022-11-05T13:17:16.877Z,1.73
2022-11-05T13:19:48.928Z,1.48
2022-11-05T13:22:38.405Z,2.38
2022-11-05T13:25:13.854Z,1.80
2022-11-05T13:27:48.666Z,1.55
2022-11-05T13:30:20.634Z,1.88
2022-11-05T13:32:58.247Z,1.70
2022-11-05T13:35:29.754Z,1.20
2022-11-05T13:38:20.526Z,1.20
2022-11-05T13:40:56.547Z,1.38
2022-11-05T13:43:42.123Z,1.60
2022-11-05T13:46:08.354Z,1.58
2022-11-05T13:48:59.301Z,2.00
2022-11-05T13:51:43.757Z,1.70
2022-11-05T13:54:36.960Z,1.45
2022-11-05T13:57:31.373Z,1.70
2022-11-05T14:00:12.810Z,1.48
2022-11-05T14:02:45.182Z,2.13
2022-11-05T14:05:37.011Z,2.00
2022-11-05T14:08:21.348Z,1.38
2022-11-05T14:11:02.047Z,1.73
2022-11-05T14:13:44.469Z,1.63
2022-11-05T14:16:25.552Z,1.50
2022-11-05T14:19:20.154Z,1.60
2022-11-05T14:21:50.663Z,1.80
2022-11-05T14:24:22.944Z,1.60
2022-11-05T14:27:12.472Z,1.60
2022-11-05T14:29:46.914Z,1.80
2022-11-05T14:32:44.033Z,1.50
2022-11-05T14:35:16.400Z,1.90
2022-11-05T14:37:42.620Z,1.50
2022-11-05T14:40:36.193Z,1.48
2022-11-05T14:43:07.468Z,1.77
2022-11-05T14:45:52.402Z,1.57
2022-11-05T14:48:42.909Z,1.20
2022-11-05T14:51:37.071Z,1.70
2022-11-05T14:54:22.425Z,1.30
2022-11-05T14:56:56.328Z,1.45
2022-11-05T14:59:31.359Z,2.77
2022-11-05T15:02:00.713Z,1.85
2022-11-05T15:04:40.485Z,3.42
2022-11-05T15:07:06.710Z,4.88
2022-11-05T15:09:58.834Z,8.68
2022-11-05T15:12:47.918Z,18.67
2022-11-05T15:15:23.995Z,40.88
2022-11-05T15:17:57.893Z,63.00
2022-11-05T15:20:35.872Z,88.35
2022-11-05T15:23:10.559Z,102.53
2022-11-05T15:25:52.767Z,114.77
2022-11-05T15:28:42.078Z,114.20
2022-11-05T15:31:14.426Z,118.35
2022-11-05T15:33:42.408Z,122.20
2022-11-05T15:36:28.176Z,118.57
2022-11-05T15:39:27.381Z,123.93
2022-11-05T15:41:42.893Z,120.53
2022-11-05T15:44:24.324Z,121.18
2022-11-05T15:47:08.252Z,112.20
2022-11-05T15:49:34.743Z,109.38
2022-11-05T15:52:01.077Z,102.80
2022-11-05T15:54:31.252Z,98.40
2022-11-05T15:56:59.413Z,90.03
2022-11-05T15:59:28.897Z,85.90
2022-11-05T16:02:02.996Z,81.90
2022-11-05T16:04:31.956Z,66.63
2022-11-05T16:07:05.887Z,61.40
2022-11-05T16:09:35.673Z,61.88
2022-11-05T16:12:35.600Z,60.03
2022-11-05T16:15:07.994Z,59.25
2022-11-05T16:17:51.590Z,55.30
2022-11-05T16:20:19.497Z,56.60
2022-11-05T16:23:00.765Z,56.55
2022-11-05T16:25:37.969Z,52.50
2022-11-05T16:28:25.826Z,52.05
2022-11-05T16:30:57.607Z,49.30
2022-11-05T16:33:27.177Z,48.47
2022-11-05T16:35:53.493Z,48.45
2022-11-05T16:38:20.342Z,47.97
2022-11-05T16:40:46.666Z,45.17
2022-11-05T16:43:24.470Z,44.70
2022-11-05T16:45:55.810Z,43.72
2022-11-05T16:48:22.770Z,43.25
2022-11-05T16:50:49.079Z,40.13
2022-11-05T16:53:15.655Z,39.65
2022-11-05T16:55:44.758Z,40.23
2022-11-05T16:58:22.787Z,38.25
2022-11-05T17:00:51.107Z,32.70
2022-11-05T17:03:17.803Z,29.02
2022-11-05T17:05:44.533Z,30.40
2022-11-05T17:08:11.413Z,30.90
2022-11-05T17:10:38.332Z,33.33
2022-11-05T17:13:04.657Z,29.88
2022-11-05T17:15:35.437Z,30.65
2022-11-05T17:18:03.494Z,29.67
2022-11-05T17:20:41.864Z,29.10
2022-11-05T17:23:11.564Z,27.13
2022-11-05T17:25:39.893Z,26.98
2022-11-05T17:28:06.340Z,25.00
2022-11-05T17:30:32.920Z,24.88
2022-11-05T17:32:59.449Z,24.73
2022-11-05T17:35:26.721Z,25.10
2022-11-05T17:37:53.113Z,23.73
2022-11-05T17:40:22.369Z,24.00
2022-11-05T17:42:49.542Z,22.45
2022-11-05T17:45:15.863Z,22.23
2022-11-05T17:47:42.616Z,21.52
2022-11-05T17:50:11.483Z,21.25
2022-11-05T17:52:38.133Z,20.20
2022-11-05T17:55:08.460Z,19.92
2022-11-05T17:57:34.760Z,18.80
2022-11-05T18:00:01.069Z,18.85
2022-11-05T18:02:29.410Z,18.48
2022-11-05T18:04:55.908Z,17.63
2022-11-05T18:07:22.213Z,16.85
2022-11-05T18:09:48.512Z,16.87
2022-11-05T18:12:14.832Z,17.17
2022-11-05T18:14:41.154Z,16.67
2022-11-05T18:17:07.490Z,15.25
2022-11-05T18:19:33.933Z,16.10
2022-11-05T18:22:00.225Z,13.87
2022-11-05T18:24:26.551Z,14.57
2022-11-05T18:26:53.429Z,14.55
2022-11-05T18:29:19.782Z,14.40
2022-11-05T18:31:46.325Z,13.43
2022-11-05T18:34:12.824Z,13.00
2022-11-05T18:36:39.248Z,13.63
2022-11-05T18:39:06.802Z,14.02
2022-11-05T18:41:33.133Z,13.43
2022-11-05T18:44:00.820Z,13.43
2022-11-05T18:46:55.764Z,12.80
2022-11-05T18:49:14.972Z,11.73
2022-11-05T18:51:41.285Z,12.00
2022-11-05T18:54:08.501Z,12.40
2022-11-05T18:56:35.617Z,11.70
2022-11-05T18:59:29.940Z,11.60
2022-11-05T19:01:48.584Z,11.18
2022-11-05T19:04:15.106Z,10.40
2022-11-05T19:06:42.594Z,11.93
2022-11-05T19:09:11.827Z,11.23
2022-11-05T19:11:39.418Z,10.77
2022-11-05T19:14:05.714Z,10.43
2022-11-05T19:16:32.566Z,10.07
2022-11-05T19:19:01.326Z,9.90
2022-11-05T19:21:28.549Z,10.05
2022-11-05T19:23:57.306Z,10.43
2022-11-05T19:26:28.662Z,9.45
2022-11-05T19:28:57.381Z,8.55
2022-11-05T19:31:23.732Z,8.02
2022-11-05T19:33:51.972Z,7.75
2022-11-05T19:36:20.540Z,7.53
2022-11-05T19:38:49.536Z,7.00
2022-11-05T19:41:18.265Z,6.70
2022-11-05T19:43:45.506Z,6.88
2022-11-05T19:46:15.125Z,7.05
2022-11-05T19:48:42.013Z,5.70
2022-11-05T19:51:10.561Z,5.95
2022-11-05T19:53:38.450Z,4.95
2022-11-05T19:56:08.437Z,5.47
2022-11-05T19:58:35.214Z,5.50
2022-11-05T20:01:01.951Z,5.50
2022-11-05T20:03:28.349Z,4.45
2022-11-05T20:05:54.727Z,5.10
2022-11-05T20:08:21.035Z,4.55
2022-11-05T20:10:47.383Z,4.57
2022-11-05T20:13:19.655Z,4.07
2022-11-05T20:15:46.573Z,4.38
2022-11-05T20:18:13.257Z,4.43
2022-11-05T20:20:39.930Z,4.25
2022-11-05T20:23:06.274Z,4.30
2022-11-05T20:25:32.819Z,4.33
2022-11-05T20:27:59.137Z,3.83
2022-11-05T20:30:25.451Z,4.53
2022-11-05T20:32:56.153Z,4.03
2022-11-05T20:35:23.669Z,3.92
2022-11-05T20:37:53.921Z,3.70
2022-11-05T20:40:20.732Z,3.60
2022-11-05T20:42:47.048Z,3.53
2022-11-05T20:45:13.586Z,3.83
2022-11-05T20:47:39.965Z,4.03
2022-11-05T20:50:07.128Z,3.73
2022-11-05T20:52:33.410Z,3.83
2022-11-05T20:55:01.048Z,3.40
2022-11-05T20:57:27.354Z,3.47
2022-11-05T20:59:53.753Z,3.72
2022-11-05T21:02:20.200Z,3.20
2022-11-05T21:04:47.454Z,3.60
2022-11-05T21:07:13.761Z,3.50
2022-11-05T21:09:40.062Z,3.25
2022-11-05T21:12:12.477Z,2.97
2022-11-05T21:14:40.574Z,2.87
2022-11-05T21:17:08.981Z,3.70
2022-11-05T21:19:35.867Z,3.00
2022-11-05T21:22:04.557Z,3.08
2022-11-05T21:24:32.613Z,3.28
2022-11-05T21:26:59.294Z,3.13
2022-11-05T21:29:25.974Z,2.80
2022-11-05T21:31:52.863Z,3.00
2022-11-05T21:34:19.790Z,2.80
2022-11-05T21:36:47.055Z,3.00
2022-11-05T21:39:13.991Z,2.70
2022-11-05T21:41:40.453Z,3.10
2022-11-05T21:44:06.745Z,3.00
2022-11-05T21:46:33.110Z,2.70
2022-11-05T21:48:59.444Z,2.80
2022-11-05T21:51:44.108Z,2.63
2022-11-05T21:54:29.868Z,2.90
2022-11-05T21:57:15.057Z,2.70
2022-11-05T21:59:55.090Z,2.50
2022-11-05T22:02:23.614Z,2.50
2022-11-05T22:04:52.281Z,2.20
2022-11-05T22:07:21.951Z,2.38
2022-11-05T22:09:48.449Z,2.45
2022-11-05T22:12:15.550Z,2.08
2022-11-05T22:14:41.963Z,2.42
2022-11-05T22:17:09.401Z,2.20
2022-11-05T22:19:35.956Z,2.20
2022-11-05T22:22:04.325Z,2.60
2022-11-05T22:24:31.803Z,2.30
2022-11-05T22:27:04.751Z,2.38
2022-11-05T22:29:31.596Z,2.33
2022-11-05T22:31:58.024Z,2.40
2022-11-05T22:34:25.588Z,2.03
2022-11-05T22:36:52.220Z,2.20
2022-11-05T22:39:18.655Z,2.33
2022-11-05T22:41:45.118Z,1.97
2022-11-05T22:44:13.980Z,2.08
2022-11-05T22:46:41.053Z,2.70
2022-11-05T22:49:07.649Z,1.95
2022-11-05T22:51:36.157Z,2.40
2022-11-05T22:54:02.859Z,1.93
2022-11-05T22:56:32.518Z,1.98
2022-11-05T22:58:59.503Z,1.95
2022-11-05T23:01:26.170Z,2.08
2022-11-05T23:03:53.942Z,1.90
2022-11-05T23:06:40.348Z,2.00
2022-11-05T23:09:49.780Z,1.80
2022-11-05T23:12:30.324Z,2.17
2022-11-05T23:14:58.929Z,2.10
2022-11-05T23:17:45.175Z,1.98
2022-11-05T23:20:39.084Z,1.97
2022-11-05T23:23:30.996Z,2.10
2022-11-05T23:26:20.799Z,2.03
2022-11-05T23:28:47.169Z,2.05
2022-11-05T23:31:32.217Z,1.80
2022-11-05T23:33:58.522Z,1.60
2022-11-05T23:36:43.251Z,1.70
2022-11-05T23:39:09.555Z,1.80
2022-11-05T23:41:54.568Z,1.98
2022-11-05T23:44:39.307Z,1.70
2022-11-05T23:47:24.061Z,1.73
2022-11-05T23:49:50.369Z,1.60
2022-11-05T23:52:16.677Z,1.60
2022-11-05T23:54:43.100Z,1.75
2022-11-05T23:57:09.964Z,1.80
2022-11-05T23:59:36.314Z,1.50
